Time;durP1;ratioP1;P1;durP2;ratioP2;P2;SDS_P1;SDS_P2;PMS_P1;PMS_P2;Temp;Humidity;BMP_temperature;BMP_pressure;BME280_temperature;BME280_humidity;BME280_pressure;Samples;Min_cycle;Max_cycle;Signal;HPM_P1;HPM_P2
2022/06/05 00:01:59;;;;;;;;;;;;;;;14.86;70.07;99651.88;5052186;28;20045;-83
2022/06/05 00:04:44;;;;;;;69.75;26.58;;;;;;;14.73;70.13;99637.22;5051613;28;20473;-83
2022/06/05 00:07:40;;;;;;;59.30;26.23;;;;;;;14.78;70.49;99642.53;5051794;28;20068;-85
2022/06/05 00:10:51;;;;;;;58.92;26.30;;;;;;;14.82;70.43;99645.44;5051764;28;20068;-85
2022/06/05 00:13:39;;;;;;;63.05;26.30;;;;;;;14.75;70.92;99634.97;5015319;28;20132;-89
2022/06/05 00:16:06;;;;;;;57.40;27.75;;;;;;;14.70;71.42;99641.47;5031510;28;20442;-83
2022/06/05 00:18:37;;;;;;;55.60;25.45;;;;;;;14.58;71.34;99624.84;5015087;28;20565;-83
2022/06/05 00:21:05;;;;;;;56.90;27.13;;;;;;;14.59;71.55;99615.47;5031444;28;20088;-85
2022/06/05 00:23:32;;;;;;;67.78;27.10;;;;;;;14.53;71.70;99620.34;5031552;28;20115;-84
2022/06/05 00:26:41;;;;;;;70.30;27.27;;;;;;;14.58;71.65;99630.34;5031435;28;20437;-84
2022/06/05 00:29:26;;;;;;;62.90;27.42;;;;;;;14.51;72.02;99627.31;5031374;28;20568;-83
2022/06/05 00:32:08;;;;;;;66.13;26.25;;;;;;;14.48;72.15;99623.25;5031005;28;20044;-84
2022/06/05 00:34:36;;;;;;;64.32;27.65;;;;;;;14.42;72.09;99610.03;5031553;28;20450;-89
2022/06/05 00:37:12;;;;;;;54.00;27.30;;;;;;;14.44;72.36;99616.81;5014927;28;20068;-85
2022/06/05 00:39:50;;;;;;;58.88;25.98;;;;;;;14.42;72.33;99615.53;4998463;28;20079;-84
2022/06/05 00:42:21;;;;;;;57.35;24.70;;;;;;;14.29;72.35;99584.34;5014226;28;20040;-84
2022/06/05 00:44:54;;;;;;;55.75;24.60;;;;;;;14.36;72.34;99603.09;5030855;28;20045;-84
2022/06/05 00:47:26;;;;;;;48.50;24.20;;;;;;;14.24;72.00;99595.56;5031152;28;20045;-88
2022/06/05 00:50:08;;;;;;;49.55;24.52;;;;;;;14.33;72.22;99604.56;5061381;28;20510;-85
2022/06/05 00:52:38;;;;;;;52.53;24.45;;;;;;;14.23;72.25;99586.47;5066457;28;20123;-85
2022/06/05 00:55:06;;;;;;;56.28;25.42;;;;;;;14.32;72.58;99597.44;5073084;28;20057;-85
2022/06/05 00:57:34;;;;;;;49.25;23.63;;;;;;;14.33;72.35;99597.09;5073010;28;20133;-85
2022/06/05 01:00:12;;;;;;;55.85;24.48;;;;;;;14.34;72.54;99598.75;5071711;28;20133;-85
2022/06/05 01:02:41;;;;;;;47.00;22.83;;;;;;;14.16;72.50;99569.69;5071618;28;20534;-85
2022/06/05 01:05:09;;;;;;;40.83;21.73;;;;;;;14.34;72.26;99600.69;5072926;28;20044;-85
2022/06/05 01:07:37;;;;;;;51.75;22.90;;;;;;;14.31;72.38;99593.91;5071582;28;20102;-85
2022/06/05 01:10:06;;;;;;;50.45;22.48;;;;;;;14.31;72.51;99587.59;5072882;28;20140;-85
2022/06/05 01:12:54;;;;;;;51.70;23.10;;;;;;;14.24;72.26;99582.63;5054884;28;20032;-85
2022/06/05 01:15:23;;;;;;;46.50;23.23;;;;;;;14.15;72.17;99565.34;5073122;28;20129;-87
2022/06/05 01:18:02;;;;;;;56.28;22.70;;;;;;;14.34;72.62;99586.94;5054725;28;20043;-86
2022/06/05 01:20:57;;;;;;;53.85;22.70;;;;;;;14.28;72.55;99586.31;5052556;28;20075;-85
2022/06/05 01:23:38;;;;;;;51.08;22.60;;;;;;;14.26;72.58;99585.03;5065312;28;20040;-86
2022/06/05 01:26:31;;;;;;;55.80;23.58;;;;;;;14.23;73.05;99589.22;5081990;28;20064;-88
2022/06/05 01:29:01;;;;;;;47.63;20.90;;;;;;;14.25;72.79;99588.91;5072112;28;20056;-85
2022/06/05 01:31:41;;;;;;;47.78;21.25;;;;;;;14.29;72.85;99584.34;5071401;28;20040;-84
2022/06/05 01:34:18;;;;;;;47.05;20.65;;;;;;;14.26;73.08;99580.31;5071203;28;20040;-89
2022/06/05 01:37:05;;;;;;;44.83;22.58;;;;;;;14.37;72.50;99586.28;5064362;28;20071;-84
2022/06/05 01:39:47;;;;;;;43.25;21.65;;;;;;;14.40;72.51;99582.84;5072275;28;20053;-84
2022/06/05 01:42:28;;;;;;;39.92;21.52;;;;;;;14.19;72.78;99549.78;5071924;28;20051;-85
2022/06/05 01:45:02;;;;;;;47.70;20.23;;;;;;;14.27;72.63;99567.38;5071961;28;20039;-84
2022/06/05 01:47:35;;;;;;;43.08;21.23;;;;;;;14.25;72.44;99551.22;5070626;28;20044;-89
2022/06/05 01:50:14;;;;;;;50.67;20.58;;;;;;;14.31;72.65;99557.34;5065944;28;20048;-85
2022/06/05 01:52:57;;;;;;;44.10;19.90;;;;;;;14.36;72.41;99568.13;5071524;28;20488;-84
2022/06/05 01:55:34;;;;;;;44.17;21.00;;;;;;;14.29;72.25;99556.84;5071476;28;20375;-88
2022/06/05 01:58:06;;;;;;;40.22;19.38;;;;;;;14.37;72.37;99574.44;5071761;28;20045;-88
2022/06/05 02:00:32;;;;;;;43.85;20.73;;;;;;;14.29;72.35;99554.09;5071742;28;20045;-84
2022/06/05 02:03:02;;;;;;;40.80;18.55;;;;;;;14.27;72.41;99553.63;5071610;28;20041;-83
2022/06/05 02:05:57;;;;;;;39.60;18.98;;;;;;;14.32;72.09;99557.00;5071063;28;20043;-90
2022/06/05 02:08:34;;;;;;;36.88;18.95;;;;;;;14.16;72.24;99538.66;5063711;28;20147;-83
2022/06/05 02:11:10;;;;;;;40.90;19.63;;;;;;;14.17;72.30;99541.09;5064759;28;20048;-84
2022/06/05 02:13:36;;;;;;;38.78;17.48;;;;;;;14.33;72.17;99557.81;5071275;28;20490;-86
2022/06/05 02:16:03;;;;;;;38.92;19.35;;;;;;;14.28;71.98;99536.00;5071943;28;20079;-89
2022/06/05 02:18:29;;;;;;;44.60;18.67;;;;;;;14.27;71.74;99548.97;5071043;28;20101;-86
2022/06/05 02:20:55;;;;;;;34.50;18.50;;;;;;;14.07;71.51;99520.28;5071368;28;20084;-89
2022/06/05 02:23:25;;;;;;;36.65;20.05;;;;;;;14.33;71.61;99560.56;5070442;28;20086;-88
2022/06/05 02:25:51;;;;;;;41.15;18.75;;;;;;;14.24;71.98;99538.63;5071231;28;20068;-84
2022/06/05 02:28:21;;;;;;;40.25;19.17;;;;;;;14.27;71.97;99540.72;5071274;28;20046;-84
2022/06/05 02:30:50;;;;;;;39.92;19.80;;;;;;;14.38;71.77;99546.63;5070383;28;20053;-84
2022/06/05 02:33:30;;;;;;;43.88;19.15;;;;;;;14.37;71.88;99557.94;5069842;28;20040;-86
2022/06/05 02:36:19;;;;;;;42.40;21.30;;;;;;;14.43;71.97;99556.63;5069946;28;20033;-86
2022/06/05 02:39:23;;;;;;;40.58;20.73;;;;;;;14.50;72.01;99551.38;5070728;28;20047;-84
2022/06/05 02:42:21;;;;;;;42.58;19.70;;;;;;;14.57;72.01;99557.22;5071037;28;20072;-84
2022/06/05 02:44:52;;;;;;;44.90;19.25;;;;;;;14.60;71.55;99555.72;5071009;28;20047;-85
2022/06/05 02:47:39;;;;;;;33.80;17.23;;;;;;;14.70;70.74;99555.34;5070170;28;20040;-83
2022/06/05 02:50:11;;;;;;;45.53;17.25;;;;;;;14.79;69.74;99559.63;5069804;28;20052;-84
2022/06/05 02:52:38;;;;;;;37.60;16.23;;;;;;;14.86;68.74;99555.56;5071228;28;20509;-84
2022/06/05 02:55:14;;;;;;;44.72;16.83;;;;;;;14.88;68.44;99531.25;5071087;28;20045;-85
2022/06/05 02:57:42;;;;;;;45.92;16.67;;;;;;;14.94;68.25;99536.22;5069990;28;20133;-88
2022/06/05 03:00:12;;;;;;;38.30;16.33;;;;;;;15.07;68.40;99528.84;5063416;28;20040;-84
2022/06/05 03:05:23;;;;;;;34.58;16.65;;;;;;;15.35;67.86;99525.47;5070902;28;20063;-85
2022/06/05 03:07:49;;;;;;;37.58;16.13;;;;;;;15.40;67.78;99517.00;5070062;28;20073;-85
2022/06/05 03:10:18;;;;;;;37.45;15.65;;;;;;;15.53;67.81;99535.19;5071307;28;20442;-88
2022/06/05 03:12:45;;;;;;;35.83;15.95;;;;;;;15.51;66.78;99518.19;5071157;28;20045;-85
2022/06/05 03:15:12;;;;;;;36.28;16.15;;;;;;;15.45;66.57;99492.00;5061548;28;20502;-84
2022/06/05 03:17:38;;;;;;;39.38;15.00;;;;;;;15.65;66.03;99526.94;5073960;28;20048;-89
2022/06/05 03:20:07;;;;;;;30.27;15.82;;;;;;;15.56;65.94;99504.16;5074376;28;20123;-85
2022/06/05 03:22:33;;;;;;;30.67;14.85;;;;;;;15.75;65.31;99509.19;5073536;28;20032;-84
2022/06/05 03:25:01;;;;;;;31.85;13.32;;;;;;;15.93;64.66;99529.88;5074168;28;20043;-85
2022/06/05 03:27:30;;;;;;;22.98;11.68;;;;;;;15.88;62.85;99505.28;5074416;28;20040;-84
2022/06/05 03:29:58;;;;;;;25.98;11.45;;;;;;;16.13;62.00;99522.66;5074365;28;20051;-85
2022/06/05 03:32:26;;;;;;;28.20;11.15;;;;;;;16.17;62.40;99490.47;5073267;28;20132;-84
2022/06/05 03:34:53;;;;;;;32.45;11.90;;;;;;;16.33;60.68;99501.59;5074288;28;20047;-88
2022/06/05 03:37:20;;;;;;;28.10;10.40;;;;;;;16.53;60.56;99501.81;5065295;28;20037;-88
2022/06/05 03:39:48;;;;;;;33.17;12.02;;;;;;;16.65;59.86;99497.06;5072948;28;20517;-85
2022/06/05 03:42:17;;;;;;;41.73;12.13;;;;;;;16.82;61.09;99504.28;5074644;28;20486;-84
2022/06/05 03:44:43;;;;;;;33.53;10.68;;;;;;;16.87;60.46;99486.66;5074257;28;20499;-83
2022/06/05 03:47:12;;;;;;;22.77;10.37;;;;;;;17.09;60.05;99501.88;5073836;28;20064;-84
2022/06/05 03:49:40;;;;;;;30.38;10.45;;;;;;;17.08;59.78;99484.50;5072747;28;20831;-85
2022/06/05 03:52:07;;;;;;;26.23;9.80;;;;;;;17.25;59.81;99488.94;5056041;28;20590;-84
2022/06/05 03:54:34;;;;;;;30.45;10.77;;;;;;;17.32;59.97;99491.06;5072866;28;20040;-87
2022/06/05 03:57:01;;;;;;;25.70;10.07;;;;;;;17.33;59.72;99485.19;5072774;28;20045;-88
2022/06/05 03:59:27;;;;;;;30.48;10.73;;;;;;;17.30;59.51;99487.84;5055435;28;20287;-84
2022/06/05 04:01:53;;;;;;;26.20;9.90;;;;;;;17.32;59.51;99480.81;5073615;28;20043;-84
2022/06/05 04:04:19;;;;;;;35.27;10.57;;;;;;;17.36;58.91;99481.72;5072613;28;21735;-89
2022/06/05 04:06:45;;;;;;;30.50;8.75;;;;;;;17.47;57.37;99482.00;5072912;28;20037;-89
2022/06/05 04:09:11;;;;;;;18.50;8.10;;;;;;;17.45;57.63;99464.97;5072724;28;20044;-88
2022/06/05 04:11:39;;;;;;;27.73;8.55;;;;;;;17.52;56.78;99480.94;5073657;28;20044;-88
2022/06/05 04:14:07;;;;;;;17.13;8.30;;;;;;;17.67;57.24;99476.56;5072180;28;20036;-87
2022/06/05 04:16:36;;;;;;;22.20;8.82;;;;;;;17.61;56.07;99457.50;5072481;28;20563;-85
2022/06/05 04:19:03;;;;;;;29.83;9.93;;;;;;;17.75;57.58;99479.16;5073207;28;20078;-84
2022/06/05 04:21:33;;;;;;;26.92;9.48;;;;;;;17.65;56.72;99467.81;5072023;28;20422;-87
2022/06/05 04:23:59;;;;;;;33.38;9.95;;;;;;;17.50;56.41;99448.09;5072490;28;20041;-85
2022/06/05 04:26:31;;;;;;;36.47;10.90;;;;;;;17.77;56.48;99476.06;5071807;28;20051;-89
2022/06/05 04:28:59;;;;;;;29.33;9.10;;;;;;;17.99;57.04;99477.38;5073222;28;20044;-85
2022/06/05 04:31:37;;;;;;;29.98;10.30;;;;;;;18.14;56.98;99484.84;5073222;28;20520;-86
2022/06/05 04:34:07;;;;;;;28.65;10.15;;;;;;;18.20;56.67;99454.94;5071941;28;20040;-86
2022/06/05 04:36:35;;;;;;;27.98;10.80;;;;;;;18.37;55.28;99465.59;5073384;28;20046;-83
2022/06/05 04:39:02;;;;;;;21.27;8.82;;;;;;;18.41;54.58;99458.22;5073100;28;20102;-84
2022/06/05 04:41:30;;;;;;;24.35;9.45;;;;;;;18.58;54.73;99458.97;5073185;28;20128;-87
2022/06/05 04:43:56;;;;;;;27.95;10.10;;;;;;;18.54;55.34;99445.84;5073225;28;20131;-86
2022/06/05 04:46:25;;;;;;;26.25;10.52;;;;;;;18.76;55.05;99465.69;5071954;28;20029;-90
2022/06/05 04:48:51;;;;;;;24.33;10.27;;;;;;;18.84;56.33;99467.44;5073091;28;20386;-90
2022/06/05 04:51:21;;;;;;;25.13;8.63;;;;;;;18.73;55.04;99472.75;5072679;28;20039;-89
2022/06/05 04:53:49;;;;;;;19.27;7.72;;;;;;;18.65;54.31;99489.56;5071410;28;20090;-85
2022/06/05 04:56:18;;;;;;;16.63;6.93;;;;;;;18.43;52.46;99464.16;5072730;28;20054;-87
2022/06/05 04:58:45;;;;;;;19.67;6.75;;;;;;;18.41;51.99;99480.34;5063967;28;20045;-85
2022/06/05 05:01:15;;;;;;;16.67;6.20;;;;;;;18.27;52.11;99478.03;5072703;28;20055;-84
2022/06/05 05:03:41;;;;;;;13.95;6.22;;;;;;;18.21;51.05;99470.38;5072352;28;20044;-85
2022/06/05 05:06:09;;;;;;;14.93;6.95;;;;;;;18.08;51.38;99470.50;5072632;28;20045;-88
2022/06/05 05:08:35;;;;;;;16.13;6.65;;;;;;;18.13;52.27;99488.78;5072304;28;20056;-84
2022/06/05 05:11:03;;;;;;;14.57;6.47;;;;;;;17.95;52.41;99491.13;5072547;28;20041;-86
2022/06/05 05:13:29;;;;;;;11.38;6.78;;;;;;;17.93;52.98;99518.34;5071522;28;20036;-85
2022/06/05 05:15:56;;;;;;;17.23;7.53;;;;;;;17.65;53.73;99506.50;5080626;28;20043;-84
2022/06/05 05:18:23;;;;;;;12.13;7.55;;;;;;;17.31;54.23;99494.97;5085852;28;20052;-84
2022/06/05 05:20:49;;;;;;;14.65;6.60;;;;;;;16.98;55.37;99518.13;5076156;28;20391;-84
2022/06/05 05:23:16;;;;;;;16.67;6.72;;;;;;;16.52;56.90;99528.56;5073052;28;20089;-87
2022/06/05 05:25:42;;;;;;;15.63;7.30;;;;;;;16.37;58.00;99537.59;5072374;28;20043;-87
2022/06/05 05:28:08;;;;;;;17.42;7.05;;;;;;;16.13;59.09;99568.72;5071937;28;20045;-85
2022/06/05 05:30:37;;;;;;;10.82;6.80;;;;;;;15.78;60.44;99562.81;5070471;28;20064;-85
2022/06/05 05:33:03;;;;;;;19.60;7.07;;;;;;;15.63;62.35;99562.31;5070717;28;20072;-84
2022/06/05 05:35:30;;;;;;;12.82;6.75;;;;;;;15.45;63.68;99580.94;5070058;28;20028;-89
2022/06/05 05:37:56;;;;;;;10.00;6.43;;;;;;;15.24;66.45;99558.16;5065656;28;20048;-84
2022/06/05 05:43:11;;;;;;;17.85;6.55;;;;;;;15.02;67.19;99534.53;5072544;28;20040;-86
2022/06/05 05:45:37;;;;;;;15.02;7.28;;;;;;;15.06;68.71;99551.19;5068991;28;20067;-87
2022/06/05 05:48:03;;;;;;;20.08;7.13;;;;;;;15.07;68.99;99545.34;5070290;28;20035;-86
2022/06/05 05:50:30;;;;;;;12.40;6.32;;;;;;;15.01;69.33;99554.94;5067243;28;20097;-84
2022/06/05 05:52:57;;;;;;;7.78;5.38;;;;;;;14.93;69.35;99575.09;5069332;28;20051;-78
2022/06/05 05:55:23;;;;;;;11.35;5.75;;;;;;;14.99;69.97;99582.00;5070060;28;20048;-78
2022/06/05 05:57:50;;;;;;;14.02;5.90;;;;;;;14.91;69.99;99571.88;5069164;28;20055;-81
2022/06/05 06:00:19;;;;;;;13.77;5.57;;;;;;;14.74;70.34;99573.63;5068274;28;20040;-74
2022/06/05 06:02:46;;;;;;;14.65;5.78;;;;;;;14.74;71.31;99562.59;5069005;28;20063;-79
2022/06/05 06:05:17;;;;;;;15.75;6.57;;;;;;;14.69;70.52;99556.47;5068342;28;20048;-75
2022/06/05 06:07:44;;;;;;;18.85;6.55;;;;;;;14.51;72.34;99536.56;5067956;28;20036;-82
2022/06/05 06:10:11;;;;;;;13.65;5.80;;;;;;;14.21;74.41;99576.97;5067880;28;20076;-76
2022/06/05 06:12:38;;;;;;;15.18;6.45;;;;;;;14.27;76.20;99557.22;5068178;28;20043;-80
2022/06/05 06:15:04;;;;;;;12.63;6.22;;;;;;;14.38;76.88;99548.56;5066882;28;20044;-79
2022/06/05 06:17:32;;;;;;;11.02;5.38;;;;;;;14.51;76.12;99537.34;5067559;28;20043;-77
2022/06/05 06:19:58;;;;;;;22.27;7.70;;;;;;;14.64;75.56;99543.75;5066421;28;20056;-76
2022/06/05 06:22:25;;;;;;;13.95;5.65;;;;;;;14.50;73.66;99537.63;5067452;28;20086;-78
2022/06/05 06:24:52;;;;;;;25.70;8.40;;;;;;;14.51;74.27;99522.78;5065205;28;20033;-81
2022/06/05 06:27:19;;;;;;;51.05;10.73;;;;;;;14.66;75.45;99515.88;5066196;28;20044;-75
2022/06/05 06:29:45;;;;;;;44.10;8.70;;;;;;;14.73;74.27;99511.44;5066577;28;20412;-80
2022/06/05 06:32:11;;;;;;;38.17;9.98;;;;;;;14.75;73.91;99520.19;5064078;28;20115;-78
2022/06/05 06:34:40;;;;;;;70.35;11.02;;;;;;;14.78;75.43;99519.50;5066059;28;20089;-79
2022/06/05 06:37:06;;;;;;;31.63;8.27;;;;;;;14.75;74.62;99511.91;5066001;28;20427;-80
2022/06/05 06:39:33;;;;;;;69.07;12.90;;;;;;;14.88;74.66;99512.00;5065224;28;20294;-75
2022/06/05 06:41:59;;;;;;;31.05;9.48;;;;;;;14.93;75.19;99509.03;5065371;28;20409;-75
2022/06/05 06:44:25;;;;;;;30.85;7.68;;;;;;;14.89;72.85;99513.59;5063638;28;20102;-80
2022/06/05 06:46:53;;;;;;;25.75;8.23;;;;;;;14.94;74.52;99510.66;5064845;28;20041;-77
2022/06/05 06:49:19;;;;;;;20.88;7.43;;;;;;;14.96;72.95;99505.59;5064778;28;20114;-76
2022/06/05 06:51:45;;;;;;;26.13;8.40;;;;;;;15.00;73.23;99512.06;5068085;28;20032;-81
2022/06/05 06:54:12;;;;;;;27.10;8.13;;;;;;;15.00;73.90;99503.78;5068121;28;20287;-79
2022/06/05 06:56:39;;;;;;;29.50;8.93;;;;;;;15.20;74.61;99496.66;5068164;28;20123;-78
2022/06/05 06:59:05;;;;;;;26.97;9.17;;;;;;;15.35;73.19;99507.00;5069272;28;20052;-77
2022/06/05 07:01:33;;;;;;;55.83;10.48;;;;;;;15.44;72.04;99499.47;5068778;28;20294;-78
2022/06/05 07:03:59;;;;;;;38.10;8.88;;;;;;;15.44;71.28;99493.16;5068797;28;20066;-76
2022/06/05 07:06:25;;;;;;;40.33;10.35;;;;;;;15.57;71.57;99502.25;5068493;28;20517;-80
2022/06/05 07:08:51;;;;;;;26.50;8.10;;;;;;;15.31;70.52;99506.06;5068171;28;20048;-76
2022/06/05 07:11:19;;;;;;;12.00;6.80;;;;;;;15.42;71.36;99511.94;5067945;28;20058;-76
2022/06/05 07:13:45;;;;;;;23.15;9.25;;;;;;;15.64;70.73;99510.75;5068907;28;20053;-78
2022/06/05 07:16:11;;;;;;;15.05;7.20;;;;;;;15.95;72.01;99516.53;5067285;28;20066;-76
2022/06/05 07:18:38;;;;;;;19.20;6.85;;;;;;;16.15;69.00;99519.53;5070591;28;20048;-78
2022/06/05 07:21:11;;;;;;;11.75;6.22;;;;;;;16.31;69.17;99517.69;5064509;28;20052;-76
2022/06/05 07:23:37;;;;;;;17.73;6.93;;;;;;;16.48;68.91;99522.16;5065957;28;20044;-74
2022/06/05 07:26:04;;;;;;;14.07;6.15;;;;;;;16.54;67.82;99519.97;5064753;28;20047;-75
2022/06/05 07:28:30;;;;;;;11.65;6.70;;;;;;;16.42;67.90;99523.53;5066075;28;20039;-75
2022/06/05 07:30:56;;;;;;;12.80;6.55;;;;;;;16.40;68.73;99534.94;5065634;28;20040;-75
2022/06/05 07:33:23;;;;;;;;;;;;;;;16.35;67.53;99526.88;5067019;28;20028;-73
2022/06/05 07:35:57;;;;;;;8.00;5.73;;;;;;;16.48;69.30;99533.19;5064279;28;19961;-76
2022/06/05 07:38:25;;;;;;;12.30;5.57;;;;;;;16.51;68.80;99535.25;5074614;28;20048;-80
2022/06/05 07:40:51;;;;;;;13.38;5.20;;;;;;;16.54;65.17;99534.56;5072293;28;20560;-77
2022/06/05 07:43:21;;;;;;;11.45;5.22;;;;;;;16.47;65.33;99533.56;5072260;28;20090;-76
2022/06/05 07:45:47;;;;;;;12.45;5.50;;;;;;;16.56;65.48;99537.78;5067248;28;20041;-76
2022/06/05 07:48:13;;;;;;;9.73;4.90;;;;;;;16.54;65.62;99531.00;5072279;28;20040;-76
2022/06/05 07:54:26;;;;;;;6.15;4.57;;;;;;;16.39;64.82;99527.81;5072911;28;20131;-76
2022/06/05 07:56:10;;;;;;;8.45;5.13;;;;;;;16.71;64.69;99530.72;5072660;28;20097;-75
2022/06/05 07:58:36;;;;;;;8.17;5.20;;;;;;;16.93;64.76;99529.44;5072377;28;20090;-80
2022/06/05 08:01:06;;;;;;;8.07;5.50;;;;;;;17.03;63.01;99522.63;5072446;28;20336;-77
2022/06/05 08:03:32;;;;;;;7.72;4.85;;;;;;;16.83;62.05;99539.03;5071388;28;20045;-79
2022/06/05 08:05:59;;;;;;;9.07;4.80;;;;;;;16.63;63.09;99531.69;5073163;28;20175;-79
2022/06/05 08:08:25;;;;;;;8.73;4.40;;;;;;;16.49;63.01;99540.34;5073290;28;20037;-76
2022/06/05 08:10:51;;;;;;;6.60;4.30;;;;;;;16.46;63.07;99538.25;5073671;28;20133;-77
2022/06/05 08:13:17;;;;;;;12.40;4.15;;;;;;;16.52;62.11;99534.09;5072475;28;20358;-76
2022/06/05 08:15:45;;;;;;;7.85;4.45;;;;;;;16.60;63.66;99546.19;5071686;28;20036;-80
2022/06/05 08:18:11;;;;;;;12.13;4.97;;;;;;;16.72;62.88;99548.09;5071679;28;20528;-77
2022/06/05 08:20:39;;;;;;;9.50;4.47;;;;;;;16.86;61.54;99534.75;5071892;28;20048;-77
2022/06/05 08:23:05;;;;;;;11.03;4.60;;;;;;;16.98;61.76;99529.19;5086999;28;20509;-75
2022/06/05 08:25:32;;;;;;;7.10;4.90;;;;;;;17.02;62.04;99534.81;5072529;28;20127;-76
2022/06/05 08:27:58;;;;;;;7.87;4.50;;;;;;;17.08;61.78;99533.41;5074321;28;20452;-77
2022/06/05 08:30:24;;;;;;;6.33;4.43;;;;;;;17.21;61.18;99539.69;5071803;28;20135;-79
2022/06/05 08:32:50;;;;;;;15.70;4.00;;;;;;;17.37;61.91;99522.00;5071346;28;20127;-75
2022/06/05 08:35:16;;;;;;;7.28;4.00;;;;;;;17.51;61.27;99527.09;5072059;28;20032;-80
2022/06/05 08:43:25;;;;;;;8.82;4.72;;;;;;;17.84;60.57;99528.78;5071403;28;20055;-77
2022/06/05 08:45:52;;;;;;;7.32;3.97;;;;;;;17.80;58.29;99516.81;5071641;28;20044;-77
2022/06/05 08:48:32;;;;;;;7.93;3.73;;;;;;;17.65;58.13;99520.34;5071326;28;20037;-76
2022/06/05 08:51:17;;;;;;;6.10;3.70;;;;;;;17.67;57.81;99518.84;5069782;28;20066;-75
2022/06/05 08:54:38;;;;;;;11.63;3.97;;;;;;;17.79;59.23;99513.25;5071900;28;20040;-74
2022/06/05 08:57:15;;;;;;;6.93;3.10;;;;;;;17.91;57.84;99520.66;5042958;28;20149;-78
2022/06/05 08:59:52;;;;;;;4.20;2.80;;;;;;;17.63;57.94;99506.09;5067538;28;20037;-79
2022/06/05 09:02:29;;;;;;;3.88;2.20;;;;;;;17.56;57.69;99518.56;5071375;28;20051;-76
2022/06/05 09:05:02;;;;;;;7.25;2.40;;;;;;;17.59;57.27;99520.63;5071190;28;20072;-79
2022/06/05 09:07:40;;;;;;;4.85;2.40;;;;;;;17.59;57.11;99514.28;5070819;28;20501;-80
2022/06/05 09:10:19;;;;;;;3.92;2.40;;;;;;;17.38;57.52;99515.34;5076774;28;20044;-80
2022/06/05 09:12:55;;;;;;;7.90;2.10;;;;;;;17.44;59.11;99507.56;5070687;28;20127;-78
2022/06/05 09:15:30;;;;;;;11.32;2.50;;;;;;;17.37;57.52;99519.22;5069932;28;20502;-77
2022/06/05 09:17:59;;;;;;;6.80;2.17;;;;;;;17.44;55.86;99509.53;5069742;28;20062;-75
2022/06/05 09:20:39;;;;;;;8.55;2.53;;;;;;;17.65;56.83;99518.41;5069486;28;20533;-75
2022/06/05 09:23:19;;;;;;;7.18;2.25;;;;;;;17.72;55.16;99515.03;5070419;28;20041;-75
2022/06/05 09:25:50;;;;;;;3.78;2.22;;;;;;;17.82;54.73;99514.50;5069286;28;20040;-78
2022/06/05 09:28:44;;;;;;;6.10;2.20;;;;;;;17.51;53.76;99523.53;5071426;28;20067;-79
2022/06/05 09:31:50;;;;;;;8.93;2.20;;;;;;;17.55;54.31;99525.25;5069330;28;20040;-78
2022/06/05 09:34:38;;;;;;;5.90;2.10;;;;;;;17.59;54.78;99531.69;5067778;28;20101;-80
2022/06/05 09:37:43;;;;;;;5.25;2.80;;;;;;;17.74;55.58;99526.50;5069910;28;20119;-78
2022/06/05 09:40:16;;;;;;;6.40;2.22;;;;;;;17.74;55.60;99532.03;5056429;28;20401;-79
2022/06/05 09:43:04;;;;;;;4.60;2.53;;;;;;;17.74;55.47;99529.28;5069258;28;20129;-79
2022/06/05 09:46:08;;;;;;;5.00;3.08;;;;;;;17.61;56.69;99532.13;5069649;28;20067;-79
2022/06/05 09:48:47;;;;;;;5.82;2.45;;;;;;;17.52;58.04;99539.78;5069537;28;20102;-79
2022/06/05 09:51:17;;;;;;;4.10;2.30;;;;;;;17.49;56.41;99537.72;5069596;28;20040;-78
2022/06/05 09:53:58;;;;;;;7.78;2.42;;;;;;;17.40;57.89;99533.50;5069300;28;20037;-78
2022/06/05 09:59:38;;;;;;;10.07;3.15;;;;;;;17.37;57.95;99533.06;5069142;28;20570;-75
2022/06/05 10:02:08;;;;;;;7.93;3.03;;;;;;;17.32;58.22;99535.28;5070647;28;20037;-75
2022/06/05 10:04:36;;;;;;;16.33;7.20;;;;;;;17.30;58.87;99534.81;5070697;28;20474;-79
2022/06/05 10:07:13;;;;;;;8.25;4.70;;;;;;;17.41;57.97;99532.34;5052959;28;20464;-75
2022/06/05 10:09:46;;;;;;;8.13;3.03;;;;;;;17.54;56.74;99539.41;5070556;28;20036;-78
2022/06/05 10:12:28;;;;;;;7.35;2.90;;;;;;;17.69;58.18;99532.31;5070470;28;20033;-75
2022/06/05 10:15:24;;;;;;;11.63;2.63;;;;;;;17.66;58.41;99535.78;5069462;28;20075;-74
2022/06/05 10:17:56;;;;;;;4.07;2.30;;;;;;;17.62;56.75;99519.13;5070109;28;20071;-76
2022/06/05 10:21:01;;;;;;;6.45;2.00;;;;;;;17.45;56.32;99531.31;5070058;28;20048;-76
2022/06/05 10:23:49;;;;;;;8.73;2.97;;;;;;;17.17;57.89;99542.34;5070423;28;20059;-77
2022/06/05 10:26:37;;;;;;;3.95;2.22;;;;;;;17.01;57.85;99533.22;5069469;28;20097;-75
2022/06/05 10:29:18;;;;;;;6.15;2.10;;;;;;;16.80;57.73;99534.19;5070489;28;20097;-75
2022/06/05 10:32:01;;;;;;;3.58;2.28;;;;;;;16.74;58.74;99521.75;5066832;28;20101;-77
2022/06/05 10:34:36;;;;;;;5.97;2.78;;;;;;;16.93;58.09;99525.88;5070019;28;20082;-79
2022/06/05 10:37:18;;;;;;;4.07;2.60;;;;;;;17.13;58.45;99533.97;5070048;28;20040;-77
2022/06/05 10:39:47;;;;;;;3.25;2.33;;;;;;;17.46;57.92;99532.91;5070308;28;20062;-76
2022/06/05 10:42:28;;;;;;;5.30;2.13;;;;;;;17.48;56.18;99522.31;5070245;28;20041;-79
2022/06/05 10:45:12;;;;;;;7.43;3.22;;;;;;;17.65;56.07;99535.00;5070330;28;20172;-78
2022/06/05 10:48:24;;;;;;;3.00;2.33;;;;;;;17.85;57.16;99527.63;5070291;28;20045;-75
2022/06/05 10:51:19;;;;;;;5.25;2.42;;;;;;;18.02;55.93;99532.00;5050672;28;20040;-79
2022/06/05 10:54:20;;;;;;;8.18;3.30;;;;;;;18.16;54.63;99528.78;5059431;28;20452;-79
2022/06/05 10:57:00;;;;;;;4.80;3.22;;;;;;;18.19;55.01;99531.63;5070048;28;20078;-80
2022/06/05 10:59:51;;;;;;;4.20;2.57;;;;;;;18.35;54.14;99523.31;5070183;28;20398;-75
2022/06/05 11:02:41;;;;;;;7.72;2.83;;;;;;;18.26;54.37;99520.72;5068503;28;20044;-75
2022/06/05 11:05:32;;;;;;;16.17;3.72;;;;;;;18.35;55.63;99522.50;5069956;28;20132;-77
2022/06/05 11:07:58;;;;;;;5.38;2.70;;;;;;;18.33;53.79;99524.81;5070051;28;20075;-78
2022/06/05 11:13:42;;;;;;;5.90;2.80;;;;;;;18.03;53.66;99511.47;5062921;28;20075;-76
2022/06/05 14:20:35;;;;;;;9.57;3.50;;;;;;;20.10;45.95;99465.75;5350610;23;20064;-83
2022/06/05 14:23:07;;;;;;;5.70;3.28;;;;;;;20.77;44.73;99464.31;5358620;23;20053;-82
2022/06/05 14:25:48;;;;;;;8.82;3.47;;;;;;;20.95;43.84;99465.31;4840247;29;20042;-83
2022/06/05 14:28:19;;;;;;;16.27;3.80;;;;;;;20.87;45.76;99453.31;4808483;29;20034;-83
2022/06/05 14:31:03;;;;;;;13.57;4.63;;;;;;;20.98;45.13;99453.44;4841132;29;20045;-81
2022/06/05 14:33:33;;;;;;;25.98;4.35;;;;;;;20.87;45.14;99447.75;4857278;29;20499;-83
2022/06/05 14:36:00;;;;;;;37.50;4.65;;;;;;;20.76;45.64;99441.28;4852565;29;20050;-84
2022/06/05 14:38:32;;;;;;;10.07;3.38;;;;;;;20.90;45.36;99450.97;4838975;29;20534;-84
2022/06/05 14:41:18;;;;;;;16.40;4.38;;;;;;;21.12;46.00;99436.13;4840275;29;20086;-84
2022/06/05 14:43:45;;;;;;;12.80;3.58;;;;;;;21.44;45.26;99449.59;4849071;29;20038;-84
2022/06/05 14:46:26;;;;;;;19.85;4.35;;;;;;;21.51;43.89;99430.19;4824000;29;20118;-83
2022/06/05 14:49:15;;;;;;;10.85;4.32;;;;;;;21.63;43.49;99437.44;4842342;29;20081;-81
2022/06/05 14:51:53;;;;;;;18.13;3.72;;;;;;;21.77;44.13;99443.91;4856111;29;20080;-83
2022/06/05 14:57:52;;;;;;;14.02;4.25;;;;;;;22.14;44.14;99444.97;4808748;29;20065;-85
2022/06/05 15:05:08;;;;;;;9.75;3.67;;;;;;;21.98;40.35;99434.13;4809177;29;20133;-78
2022/06/05 15:08:07;;;;;;;8.27;3.72;;;;;;;22.06;40.69;99433.00;4818762;29;20066;-82
2022/06/05 15:10:43;;;;;;;7.95;3.20;;;;;;;22.17;39.24;99424.72;4812626;29;20056;-81
2022/06/05 15:13:17;;;;;;;11.02;3.28;;;;;;;21.80;39.04;99426.44;4821629;29;20046;-80
2022/06/05 15:15:56;;;;;;;5.43;2.83;;;;;;;21.68;39.80;99440.66;4806701;29;20051;-80
2022/06/05 15:18:24;;;;;;;9.68;3.33;;;;;;;21.87;41.68;99425.69;4798803;29;20572;-82
2022/06/05 15:21:13;;;;;;;5.18;2.40;;;;;;;21.86;38.65;99434.44;4821579;29;20125;-81
2022/06/05 15:24:04;;;;;;;9.38;2.70;;;;;;;21.76;38.38;99435.97;4821321;29;20047;-82
2022/06/05 15:26:49;;;;;;;7.63;2.67;;;;;;;21.93;38.23;99438.06;4811264;29;20087;-82